42N weather

Double Jj Resort Ranch Airport
Rothbury, Michigan, United States

Public forecast

Using degrees Fahrenheit for public forecast. Weather courtesy of forecast.io.

Closest aviation weather report (METAR) to Double Jj Resort Ranch Airport

Closest report is Fremont Municipal Airport, 17.1 nm (31.7 km) ESE. Retrieved 2020/04/05 10:35 UTC (6 minutes ago):

KFFX 051035Z AUTO 36004KT 10SM CLR M02/M03 A3018 RMK AO2 T10201030

Closest aviation forecast (TAF) to Double Jj Resort Ranch Airport

Closest forecast is Muskegon County Airport, 21.7 nm (40.1 km) SSE. Retrieved 2020/04/05 06:42 UTC (4 hours ago):

TAF KMKG 050540Z 0506/0606 01004KT P6SM SKC FM051700 30007KT P6SM SCT080 FM060000 00000KT P6SM BKN250